createdAt,value
2023-05-14T00:01:09.066Z,10.48
2023-05-14T00:04:12.022Z,10.07
2023-05-14T00:07:15.069Z,10.07
2023-05-14T00:10:19.406Z,10.52
2023-05-14T00:13:22.243Z,9.95
2023-05-14T00:16:25.048Z,9.90
2023-05-14T00:19:27.998Z,9.23
2023-05-14T00:22:30.723Z,9.30
2023-05-14T00:25:33.507Z,9.13
2023-05-14T00:28:36.209Z,8.10
2023-05-14T00:31:39.080Z,9.38
2023-05-14T00:34:41.862Z,9.47
2023-05-14T00:37:44.705Z,9.05
2023-05-14T00:40:51.491Z,9.75
2023-05-14T00:43:54.344Z,9.20
2023-05-14T00:46:57.222Z,9.15
2023-05-14T00:50:00.013Z,9.30
2023-05-14T00:53:03.038Z,8.95
2023-05-14T00:56:08.444Z,9.30
2023-05-14T00:59:11.280Z,8.57
2023-05-14T01:02:14.033Z,8.98
2023-05-14T01:05:17.494Z,9.30
2023-05-14T01:08:29.844Z,9.15
2023-05-14T01:11:42.510Z,8.15
2023-05-14T01:15:12.055Z,9.13
2023-05-14T01:18:18.816Z,9.50
2023-05-14T01:21:43.710Z,9.07
2023-05-14T01:24:46.656Z,9.00
2023-05-14T01:27:55.254Z,9.82
2023-05-14T01:31:09.745Z,9.70
2023-05-14T01:34:14.162Z,9.93
2023-05-14T01:37:18.187Z,9.47
2023-05-14T01:40:21.505Z,10.38
2023-05-14T01:43:24.674Z,9.80
2023-05-14T01:46:32.107Z,9.95
2023-05-14T01:49:37.361Z,9.93
2023-05-14T01:52:40.169Z,9.03
2023-05-14T01:55:42.876Z,9.60
2023-05-14T01:58:45.727Z,9.90
2023-05-14T02:01:48.753Z,9.60
2023-05-14T02:04:52.401Z,9.48
2023-05-14T02:07:55.202Z,8.43
2023-05-14T02:10:58.015Z,9.20
2023-05-14T02:14:01.965Z,8.82
2023-05-14T02:17:04.940Z,8.48
2023-05-14T02:20:08.307Z,8.38
2023-05-14T02:23:11.058Z,9.10
2023-05-14T02:26:13.810Z,8.02
2023-05-14T02:29:16.537Z,7.90
2023-05-14T02:32:19.374Z,8.30
2023-05-14T02:35:22.218Z,8.88
2023-05-14T02:38:26.797Z,8.57
2023-05-14T02:41:32.515Z,9.27
2023-05-14T02:44:35.277Z,9.23
2023-05-14T02:47:38.282Z,8.77
2023-05-14T02:50:41.327Z,9.25
2023-05-14T02:53:44.205Z,8.67
2023-05-14T02:56:47.273Z,9.50
2023-05-14T02:59:49.988Z,9.25
2023-05-14T03:02:53.463Z,9.85
2023-05-14T03:05:56.912Z,9.35
2023-05-14T03:08:59.702Z,9.23
2023-05-14T03:12:02.566Z,8.82
2023-05-14T03:15:05.663Z,9.90
2023-05-14T03:18:08.373Z,10.23
2023-05-14T03:21:11.242Z,9.60
2023-05-14T03:24:14.115Z,9.53
2023-05-14T03:27:16.978Z,10.10
2023-05-14T03:30:19.712Z,9.80
2023-05-14T03:33:23.012Z,8.95
2023-05-14T03:36:25.937Z,9.30
2023-05-14T03:39:28.893Z,10.40
2023-05-14T03:42:32.349Z,9.55
2023-05-14T03:45:35.677Z,10.15
2023-05-14T03:48:38.458Z,9.70
2023-05-14T03:51:41.209Z,9.85
2023-05-14T03:54:44.018Z,9.23
2023-05-14T03:57:47.819Z,9.63
2023-05-14T04:00:50.957Z,10.02
2023-05-14T04:03:53.873Z,9.07
2023-05-14T04:06:57.169Z,9.60
2023-05-14T04:10:04.014Z,9.13
2023-05-14T04:13:07.268Z,8.90
2023-05-14T04:16:11.671Z,8.63
2023-05-14T04:19:14.518Z,8.45
2023-05-14T04:22:17.933Z,8.32
2023-05-14T04:25:20.948Z,8.77
2023-05-14T04:28:23.728Z,10.48
2023-05-14T04:31:26.446Z,9.13
2023-05-14T04:34:29.172Z,8.48
2023-05-14T04:37:33.081Z,8.63
2023-05-14T04:40:35.872Z,8.30
2023-05-14T04:43:38.587Z,8.70
2023-05-14T04:46:41.415Z,8.43
2023-05-14T04:49:44.143Z,8.63
2023-05-14T04:52:46.904Z,8.57
2023-05-14T04:55:49.595Z,8.23
2023-05-14T04:58:52.289Z,7.72
2023-05-14T05:01:55.103Z,8.77
2023-05-14T05:04:57.812Z,8.98
2023-05-14T05:08:00.528Z,8.70
2023-05-14T05:11:03.250Z,8.20
2023-05-14T05:14:06.000Z,8.30
2023-05-14T05:17:08.788Z,7.93
2023-05-14T05:20:12.146Z,7.75
2023-05-14T05:23:14.937Z,8.70
2023-05-14T05:26:17.714Z,7.13
2023-05-14T05:29:20.481Z,7.82
2023-05-14T05:32:23.553Z,7.45
2023-05-14T05:35:26.324Z,6.75
2023-05-14T05:38:29.170Z,7.13
2023-05-14T05:41:31.912Z,6.10
2023-05-14T05:44:34.697Z,6.00
2023-05-14T05:47:37.491Z,6.70
2023-05-14T05:50:40.303Z,6.78
2023-05-14T05:53:43.085Z,7.25
2023-05-14T05:56:45.847Z,6.00
2023-05-14T05:59:48.742Z,6.55
2023-05-14T06:02:51.575Z,6.80
2023-05-14T06:05:54.350Z,5.65
2023-05-14T06:08:57.059Z,7.85
2023-05-14T06:11:59.728Z,8.30
2023-05-14T06:15:02.518Z,7.38
2023-05-14T06:18:05.906Z,7.00
2023-05-14T06:21:08.728Z,6.85
2023-05-14T06:24:11.721Z,10.70
2023-05-14T06:27:14.449Z,9.33
2023-05-14T06:30:17.213Z,11.95
2023-05-14T06:33:23.580Z,8.27
2023-05-14T06:36:26.452Z,7.90
2023-05-14T06:39:29.213Z,7.45
2023-05-14T06:42:31.949Z,7.17
2023-05-14T06:45:34.660Z,6.43
2023-05-14T06:48:37.521Z,7.35
2023-05-14T06:51:40.898Z,6.88
2023-05-14T06:54:43.618Z,5.55
2023-05-14T06:57:46.279Z,5.90
2023-05-14T07:00:48.956Z,6.55
2023-05-14T07:03:51.785Z,6.22
2023-05-14T07:06:54.606Z,6.43
2023-05-14T07:09:57.381Z,6.20
2023-05-14T07:13:00.195Z,6.30
2023-05-14T07:16:02.929Z,6.22
2023-05-14T07:19:05.781Z,5.78
2023-05-14T07:22:08.520Z,6.10
2023-05-14T07:25:11.348Z,6.38
2023-05-14T07:28:14.156Z,6.37
2023-05-14T07:31:16.957Z,6.45
2023-05-14T07:34:19.778Z,6.53
2023-05-14T07:37:23.972Z,6.47
2023-05-14T07:40:27.522Z,6.82
2023-05-14T07:43:30.389Z,5.53
2023-05-14T07:46:33.158Z,6.95
2023-05-14T07:49:36.154Z,7.88
2023-05-14T07:52:39.499Z,7.35
2023-05-14T07:55:42.527Z,7.68
2023-05-14T07:58:45.260Z,7.60
2023-05-14T08:01:48.047Z,8.30
2023-05-14T08:04:50.799Z,9.20
2023-05-14T08:07:53.593Z,9.25
2023-05-14T08:10:56.437Z,8.93
2023-05-14T08:13:59.211Z,11.33
2023-05-14T08:17:02.020Z,11.85
2023-05-14T08:20:06.780Z,11.98
2023-05-14T08:23:10.547Z,12.10
2023-05-14T08:26:13.284Z,10.60
2023-05-14T08:29:16.785Z,10.83
2023-05-14T08:32:23.728Z,11.43
2023-05-14T08:35:26.973Z,10.95
2023-05-14T08:38:29.755Z,10.77
2023-05-14T08:41:32.726Z,11.32
2023-05-14T08:45:02.324Z,11.40
2023-05-14T08:48:09.176Z,10.10
2023-05-14T08:51:12.998Z,9.30
2023-05-14T08:54:19.350Z,10.30
2023-05-14T08:57:25.030Z,10.52
2023-05-14T09:00:27.931Z,10.00
2023-05-14T09:03:31.602Z,9.15
2023-05-14T09:06:38.020Z,9.68
2023-05-14T09:09:41.563Z,12.10
2023-05-14T09:12:44.625Z,10.00
2023-05-14T09:15:50.809Z,10.07
2023-05-14T09:18:53.831Z,11.82
2023-05-14T09:22:01.141Z,12.25
2023-05-14T09:25:09.694Z,12.30
2023-05-14T09:28:12.619Z,12.65
2023-05-14T09:31:15.533Z,12.27
2023-05-14T09:34:25.424Z,12.95
2023-05-14T09:37:28.797Z,12.13
2023-05-14T09:40:31.513Z,12.25
2023-05-14T09:43:34.310Z,13.40
2023-05-14T09:46:37.052Z,12.10
2023-05-14T09:49:40.196Z,11.32
2023-05-14T09:52:44.155Z,12.18
2023-05-14T09:55:47.457Z,9.82
2023-05-14T09:58:50.561Z,12.77
2023-05-14T10:01:54.414Z,11.47
2023-05-14T10:05:02.842Z,12.20
2023-05-14T10:08:20.190Z,12.45
2023-05-14T10:11:27.378Z,12.32
2023-05-14T10:14:39.173Z,12.98
2023-05-14T10:17:47.486Z,13.37
2023-05-14T10:21:01.763Z,13.05
2023-05-14T10:24:06.081Z,14.18
2023-05-14T10:27:09.198Z,14.63
2023-05-14T10:30:15.291Z,14.85
2023-05-14T10:33:18.916Z,15.40
2023-05-14T10:36:22.512Z,15.02
2023-05-14T10:40:00.408Z,15.98
2023-05-14T10:43:04.555Z,18.00
2023-05-14T10:46:10.069Z,16.88
2023-05-14T10:49:12.908Z,16.57
2023-05-14T10:52:20.345Z,16.38
2023-05-14T10:55:23.172Z,17.80
2023-05-14T10:58:26.220Z,16.17
2023-05-14T11:01:29.008Z,17.80
2023-05-14T11:04:31.875Z,18.07
2023-05-14T11:07:36.831Z,18.77
2023-05-14T11:10:39.853Z,18.45
2023-05-14T11:13:43.065Z,17.90
2023-05-14T11:16:47.448Z,14.68
2023-05-14T11:19:51.234Z,15.97
2023-05-14T11:22:54.111Z,15.75
2023-05-14T11:25:57.147Z,17.52
2023-05-14T11:29:00.206Z,18.83
2023-05-14T11:32:06.123Z,16.23
2023-05-14T11:35:09.333Z,15.30
2023-05-14T11:38:16.635Z,14.32
2023-05-14T11:41:21.679Z,13.80
2023-05-14T11:44:24.700Z,14.60
2023-05-14T11:47:29.930Z,14.77
2023-05-14T11:50:36.660Z,15.43
2023-05-14T11:53:39.406Z,15.35
2023-05-14T11:56:42.421Z,15.15
2023-05-14T11:59:45.998Z,15.38
2023-05-14T12:02:50.027Z,15.48
2023-05-14T12:06:00.575Z,16.10
2023-05-14T12:09:05.571Z,15.70
2023-05-14T12:12:12.467Z,15.25
2023-05-14T12:15:17.157Z,14.38
2023-05-14T12:18:24.495Z,16.08
2023-05-14T12:21:29.431Z,14.67
2023-05-14T12:24:32.397Z,14.98
2023-05-14T12:27:37.807Z,14.60
2023-05-14T12:30:41.360Z,13.30
2023-05-14T12:33:44.055Z,13.27
2023-05-14T12:36:46.794Z,13.27
2023-05-14T12:39:49.519Z,13.65
2023-05-14T12:42:52.239Z,13.25
2023-05-14T12:45:55.692Z,13.23
2023-05-14T12:48:58.508Z,13.38
2023-05-14T12:52:19.475Z,13.53
2023-05-14T12:55:23.991Z,12.88
2023-05-14T12:58:26.765Z,12.52
2023-05-14T13:01:29.643Z,12.40
2023-05-14T13:04:32.611Z,13.43
2023-05-14T13:07:36.402Z,13.13
2023-05-14T13:10:39.112Z,13.95
2023-05-14T13:13:41.928Z,14.70
2023-05-14T13:16:44.770Z,14.23
2023-05-14T13:19:47.472Z,14.15
2023-05-14T13:22:50.183Z,13.97
2023-05-14T13:25:52.933Z,12.45
2023-05-14T13:28:55.793Z,11.82
2023-05-14T13:31:58.776Z,12.23
2023-05-14T13:35:01.491Z,12.05
2023-05-14T13:38:04.262Z,12.70
2023-05-14T13:41:07.331Z,11.90
2023-05-14T13:44:10.190Z,10.65
2023-05-14T13:47:12.891Z,10.07
2023-05-14T13:50:15.718Z,9.32
2023-05-14T13:53:20.208Z,9.83
2023-05-14T13:56:23.023Z,10.25
2023-05-14T13:59:25.898Z,9.80
2023-05-14T14:02:28.713Z,9.60
2023-05-14T14:05:31.875Z,9.85
2023-05-14T14:08:34.707Z,9.30
2023-05-14T14:11:37.474Z,10.55
2023-05-14T14:14:40.220Z,10.85
2023-05-14T14:17:43.226Z,10.32
2023-05-14T14:20:46.209Z,10.73
2023-05-14T14:23:49.060Z,9.90
2023-05-14T14:26:51.819Z,9.70
2023-05-14T14:29:54.635Z,10.18
2023-05-14T14:32:57.441Z,9.75
2023-05-14T14:36:00.134Z,10.20
2023-05-14T14:39:02.891Z,11.17
2023-05-14T14:42:07.574Z,11.18
2023-05-14T14:45:11.099Z,12.25
2023-05-14T14:48:25.603Z,11.23
2023-05-14T14:51:28.456Z,13.35
2023-05-14T14:54:31.201Z,12.50
2023-05-14T14:57:33.911Z,11.75
2023-05-14T15:00:36.789Z,11.18
2023-05-14T15:03:39.612Z,11.80
2023-05-14T15:06:42.458Z,11.15
2023-05-14T15:09:45.203Z,11.07
2023-05-14T15:12:48.427Z,11.20
2023-05-14T15:15:52.682Z,11.15
2023-05-14T15:18:55.612Z,12.20
2023-05-14T15:21:58.760Z,10.95
2023-05-14T15:25:01.490Z,11.30
2023-05-14T15:28:06.519Z,11.13
2023-05-14T15:31:09.393Z,10.85
2023-05-14T15:34:12.145Z,10.57
2023-05-14T15:37:14.875Z,11.77
2023-05-14T15:40:19.624Z,10.50
2023-05-14T15:43:22.399Z,11.95
2023-05-14T15:46:25.851Z,11.27
2023-05-14T15:49:28.668Z,10.00
2023-05-14T15:52:31.775Z,10.57
2023-05-14T15:55:34.655Z,10.23
2023-05-14T15:58:37.434Z,10.00
2023-05-14T16:01:40.757Z,10.27
2023-05-14T16:04:45.393Z,9.95
2023-05-14T16:07:48.202Z,10.20
2023-05-14T16:10:50.945Z,10.27
2023-05-14T16:13:53.678Z,9.32
2023-05-14T16:16:56.465Z,9.63
2023-05-14T16:20:01.009Z,9.82
2023-05-14T16:23:04.056Z,10.45
2023-05-14T16:26:06.846Z,10.00
2023-05-14T16:29:09.748Z,10.02
2023-05-14T16:32:12.697Z,10.35
2023-05-14T16:35:16.913Z,9.73
2023-05-14T16:38:19.796Z,10.55
2023-05-14T16:41:22.538Z,10.27
2023-05-14T16:44:25.280Z,10.27
2023-05-14T16:47:28.055Z,11.43
2023-05-14T16:50:30.913Z,11.30
2023-05-14T16:53:33.665Z,10.80
2023-05-14T16:56:36.888Z,11.00
2023-05-14T16:59:39.685Z,12.00
2023-05-14T17:02:43.094Z,11.40
2023-05-14T17:05:46.164Z,11.25
2023-05-14T17:08:49.208Z,11.70
2023-05-14T17:11:51.934Z,12.20
2023-05-14T17:14:54.726Z,12.68
2023-05-14T17:17:57.756Z,12.40
2023-05-14T17:21:00.486Z,11.70
2023-05-14T17:24:03.282Z,12.80
2023-05-14T17:27:07.572Z,12.70
2023-05-14T17:30:10.805Z,12.57
2023-05-14T17:33:13.545Z,12.15
2023-05-14T17:36:16.346Z,12.30
2023-05-14T17:39:19.059Z,12.07
2023-05-14T17:42:21.765Z,12.00
2023-05-14T17:45:24.925Z,12.27
2023-05-14T17:48:28.155Z,13.30
2023-05-14T17:51:31.711Z,13.02
2023-05-14T17:54:34.503Z,12.73
2023-05-14T17:57:37.791Z,12.83
2023-05-14T18:00:40.915Z,14.15
2023-05-14T18:03:43.951Z,13.00
2023-05-14T18:06:46.780Z,12.75
2023-05-14T18:09:49.517Z,14.50
2023-05-14T18:12:52.429Z,14.03
2023-05-14T18:15:56.641Z,14.48
2023-05-14T18:19:02.905Z,13.77
2023-05-14T18:22:05.896Z,13.75
2023-05-14T18:25:09.755Z,14.45
2023-05-14T18:28:13.069Z,13.73
2023-05-14T18:31:16.184Z,14.95
2023-05-14T18:34:18.992Z,14.75
2023-05-14T18:37:21.748Z,14.93
2023-05-14T18:40:24.545Z,16.27
2023-05-14T18:43:27.669Z,15.73
2023-05-14T18:46:30.745Z,15.75
2023-05-14T18:49:33.613Z,15.85
2023-05-14T18:52:36.573Z,15.25
2023-05-14T18:55:39.883Z,14.32
2023-05-14T18:58:42.802Z,13.83
2023-05-14T19:01:45.887Z,13.38
2023-05-14T19:04:52.842Z,14.07
2023-05-14T19:07:57.153Z,15.45
2023-05-14T19:10:59.917Z,15.75
2023-05-14T19:14:03.008Z,13.93
2023-05-14T19:17:06.340Z,14.40
2023-05-14T19:20:09.855Z,15.80
2023-05-14T19:23:12.921Z,14.13
2023-05-14T19:26:16.023Z,13.93
2023-05-14T19:29:18.724Z,14.30
2023-05-14T19:32:21.739Z,14.40
2023-05-14T19:35:24.767Z,15.15
2023-05-14T19:38:27.765Z,13.75
2023-05-14T19:41:30.739Z,15.30
2023-05-14T19:44:33.850Z,14.13
2023-05-14T19:47:36.661Z,15.35
2023-05-14T19:50:39.444Z,15.15
2023-05-14T19:53:42.195Z,15.88
2023-05-14T19:56:45.118Z,16.17
2023-05-14T19:59:48.151Z,15.97
2023-05-14T20:02:51.039Z,16.23
2023-05-14T20:05:55.044Z,18.10
2023-05-14T20:08:57.808Z,17.40
2023-05-14T20:12:00.543Z,17.55
2023-05-14T20:15:04.291Z,18.83
2023-05-14T20:18:07.162Z,19.38
2023-05-14T20:21:10.232Z,18.88
2023-05-14T20:24:12.958Z,18.70
2023-05-14T20:27:15.768Z,19.75
2023-05-14T20:30:19.403Z,20.50
2023-05-14T20:33:22.200Z,21.30
2023-05-14T20:36:25.728Z,20.30
2023-05-14T20:39:28.432Z,20.17
2023-05-14T20:42:31.243Z,19.92
2023-05-14T20:45:34.010Z,19.40
2023-05-14T20:48:36.749Z,19.65
2023-05-14T20:51:39.579Z,20.63
2023-05-14T20:54:43.198Z,20.48
2023-05-14T20:57:45.945Z,21.15
2023-05-14T21:00:48.674Z,21.47
2023-05-14T21:03:51.478Z,21.50
2023-05-14T21:06:54.431Z,20.90
2023-05-14T21:09:57.225Z,23.10
2023-05-14T21:13:00.049Z,27.58
2023-05-14T21:16:03.139Z,25.27
2023-05-14T21:19:06.061Z,23.67
2023-05-14T21:22:08.916Z,23.92
2023-05-14T21:25:11.678Z,24.42
2023-05-14T21:28:14.442Z,23.17
2023-05-14T21:31:17.399Z,23.10
2023-05-14T21:34:20.700Z,22.02
2023-05-14T21:37:23.623Z,22.77
2023-05-14T21:40:26.336Z,21.00
2023-05-14T21:43:29.031Z,21.00
2023-05-14T21:46:32.189Z,19.90
2023-05-14T21:49:35.796Z,19.65
2023-05-14T21:52:38.742Z,19.88
2023-05-14T21:55:41.708Z,20.88
2023-05-14T21:58:44.821Z,20.63
2023-05-14T22:02:05.543Z,21.00
2023-05-14T22:05:09.612Z,20.08
2023-05-14T22:08:12.323Z,20.75
2023-05-14T22:11:15.077Z,21.83
2023-05-14T22:14:17.782Z,25.08
2023-05-14T22:17:20.599Z,27.40
2023-05-14T22:20:23.298Z,28.30
2023-05-14T22:23:25.961Z,29.00
2023-05-14T22:26:28.692Z,30.00
2023-05-14T22:29:31.383Z,27.65
2023-05-14T22:32:34.088Z,27.70
2023-05-14T22:35:36.865Z,27.48
2023-05-14T22:38:41.324Z,27.33
2023-05-14T22:41:44.132Z,23.35
2023-05-14T22:44:46.848Z,23.17
2023-05-14T22:47:49.717Z,23.17
2023-05-14T22:50:52.451Z,24.02
2023-05-14T22:53:55.264Z,25.10
2023-05-14T22:56:58.148Z,24.70
2023-05-14T23:00:01.016Z,24.65
2023-05-14T23:03:04.227Z,25.50
2023-05-14T23:06:07.227Z,25.83
2023-05-14T23:09:09.979Z,25.77
2023-05-14T23:12:12.713Z,25.40
2023-05-14T23:15:15.539Z,25.17
2023-05-14T23:18:18.357Z,26.90
2023-05-14T23:21:21.221Z,26.75
2023-05-14T23:24:24.070Z,27.88
2023-05-14T23:27:27.369Z,27.58
2023-05-14T23:30:30.100Z,25.15
2023-05-14T23:33:32.800Z,24.10
2023-05-14T23:36:35.938Z,23.83
2023-05-14T23:39:38.692Z,23.00
2023-05-14T23:42:42.122Z,22.05
2023-05-14T23:45:44.936Z,22.00
2023-05-14T23:48:47.733Z,20.90
2023-05-14T23:51:50.676Z,19.60
2023-05-14T23:54:53.703Z,21.25
2023-05-14T23:57:56.391Z,21.30
